sensor_id;sensor_type;location;lat;lon;timestamp;pressure;altitude;pressure_sealevel;temperature;humidity
72038;BME280;59900;50.788;12.904;2023-02-19T00:02:03;97516.81;;;7.95;93.30
72038;BME280;59900;50.788;12.904;2023-02-19T00:04:29;97523.84;;;7.95;93.29
72038;BME280;59900;50.788;12.904;2023-02-19T00:06:54;97515.97;;;7.95;92.75
72038;BME280;59900;50.788;12.904;2023-02-19T00:09:19;97524.81;;;7.94;92.48
72038;BME280;59900;50.788;12.904;2023-02-19T00:11:45;97519.41;;;7.95;92.02
72038;BME280;59900;50.788;12.904;2023-02-19T00:14:14;97524.28;;;7.98;92.23
72038;BME280;59900;50.788;12.904;2023-02-19T00:16:40;97515.63;;;7.98;92.23
72038;BME280;59900;50.788;12.904;2023-02-19T00:19:07;97514.63;;;7.99;92.42
72038;BME280;59900;50.788;12.904;2023-02-19T00:21:35;97516.59;;;7.97;92.08
72038;BME280;59900;50.788;12.904;2023-02-19T00:24:03;97510.41;;;7.98;91.54
72038;BME280;59900;50.788;12.904;2023-02-19T00:26:29;97502.72;;;7.96;91.86
72038;BME280;59900;50.788;12.904;2023-02-19T00:28:55;97497.94;;;8.00;91.40
72038;BME280;59900;50.788;12.904;2023-02-19T00:31:25;97502.53;;;7.98;91.10
72038;BME280;59900;50.788;12.904;2023-02-19T00:33:53;97488.44;;;7.99;91.34
72038;BME280;59900;50.788;12.904;2023-02-19T00:36:19;97497.94;;;8.00;91.16
72038;BME280;59900;50.788;12.904;2023-02-19T00:38:45;97497.94;;;8.00;91.19
72038;BME280;59900;50.788;12.904;2023-02-19T00:41:11;97487.47;;;8.00;91.01
72038;BME280;59900;50.788;12.904;2023-02-19T00:43:54;97495.94;;;8.02;90.73
72038;BME280;59900;50.788;12.904;2023-02-19T00:46:22;97491.06;;;7.99;91.06
72038;BME280;59900;50.788;12.904;2023-02-19T00:48:48;97488.44;;;7.99;91.54
72038;BME280;59900;50.788;12.904;2023-02-19T00:51:14;97484.22;;;7.98;91.72
72038;BME280;59900;50.788;12.904;2023-02-19T00:53:40;97475.38;;;7.99;91.54
72038;BME280;59900;50.788;12.904;2023-02-19T00:56:06;97478.34;;;7.96;92.20
72038;BME280;59900;50.788;12.904;2023-02-19T00:58:31;97484.94;;;7.92;92.54
72038;BME280;59900;50.788;12.904;2023-02-19T01:00:57;97476.09;;;7.93;93.08
72038;BME280;59900;50.788;12.904;2023-02-19T01:03:22;97467.59;;;7.90;93.52
72038;BME280;59900;50.788;12.904;2023-02-19T01:05:49;97471.59;;;7.86;94.41
72038;BME280;59900;50.788;12.904;2023-02-19T01:08:14;97461.31;;;7.85;94.82
72038;BME280;59900;50.788;12.904;2023-02-19T01:10:39;97466.44;;;7.78;96.38
72038;BME280;59900;50.788;12.904;2023-02-19T01:13:05;97459.31;;;7.72;98.96
72038;BME280;59900;50.788;12.904;2023-02-19T01:15:32;97448.47;;;7.61;100.00
72038;BME280;59900;50.788;12.904;2023-02-19T01:17:57;97459.66;;;7.55;100.00
72038;BME280;59900;50.788;12.904;2023-02-19T01:20:22;97451.72;;;7.48;100.00
72038;BME280;59900;50.788;12.904;2023-02-19T01:22:47;97433.78;;;7.45;100.00
72038;BME280;59900;50.788;12.904;2023-02-19T01:25:13;97416.81;;;7.41;100.00
72038;BME280;59900;50.788;12.904;2023-02-19T01:27:38;97415.84;;;7.42;100.00
72038;BME280;59900;50.788;12.904;2023-02-19T01:30:03;97413.75;;;7.38;100.00
72038;BME280;59900;50.788;12.904;2023-02-19T01:32:29;97406.09;;;7.36;100.00
72038;BME280;59900;50.788;12.904;2023-02-19T01:34:54;97401.50;;;7.38;100.00
72038;BME280;59900;50.788;12.904;2023-02-19T01:37:19;97389.41;;;7.37;100.00
72038;BME280;59900;50.788;12.904;2023-02-19T01:39:46;97380.94;;;7.35;100.00
72038;BME280;59900;50.788;12.904;2023-02-19T01:42:13;97386.16;;;7.35;100.00
72038;BME280;59900;50.788;12.904;2023-02-19T01:47:04;97370.13;;;7.38;100.00
72038;BME280;59900;50.788;12.904;2023-02-19T01:49:34;97367.50;;;7.38;100.00
72038;BME280;59900;50.788;12.904;2023-02-19T01:52:10;97362.53;;;7.43;100.00
72038;BME280;59900;50.788;12.904;2023-02-19T01:54:40;97355.88;;;7.41;100.00
72038;BME280;59900;50.788;12.904;2023-02-19T01:57:11;97338.22;;;7.43;100.00
72038;BME280;59900;50.788;12.904;2023-02-19T01:59:37;97352.44;;;7.40;100.00
72038;BME280;59900;50.788;12.904;2023-02-19T02:02:03;97350.47;;;7.42;100.00
72038;BME280;59900;50.788;12.904;2023-02-19T02:04:30;97347.88;;;7.42;100.00
72038;BME280;59900;50.788;12.904;2023-02-19T02:06:57;97355.72;;;7.42;100.00
72038;BME280;59900;50.788;12.904;2023-02-19T02:09:26;97333.78;;;7.43;100.00
72038;BME280;59900;50.788;12.904;2023-02-19T02:12:11;97341.00;;;7.41;100.00
72038;BME280;59900;50.788;12.904;2023-02-19T02:14:42;97325.31;;;7.41;100.00
72038;BME280;59900;50.788;12.904;2023-02-19T02:17:19;97323.69;;;7.40;100.00
72038;BME280;59900;50.788;12.904;2023-02-19T02:22:51;97325.31;;;7.41;100.00
72038;BME280;59900;50.788;12.904;2023-02-19T02:25:39;97314.69;;;7.43;100.00
72038;BME280;59900;50.788;12.904;2023-02-19T02:31:15;97303.78;;;7.39;100.00
72038;BME280;59900;50.788;12.904;2023-02-19T02:36:22;97294.94;;;7.40;100.00
72038;BME280;59900;50.788;12.904;2023-02-19T02:38:51;97288.91;;;7.40;100.00
72038;BME280;59900;50.788;12.904;2023-02-19T02:41:19;97279.91;;;7.42;100.00
72038;BME280;59900;50.788;12.904;2023-02-19T02:43:44;97272.06;;;7.42;100.00
72038;BME280;59900;50.788;12.904;2023-02-19T02:46:12;97278.25;;;7.41;100.00
72038;BME280;59900;50.788;12.904;2023-02-19T02:48:55;97277.28;;;7.42;100.00
72038;BME280;59900;50.788;12.904;2023-02-19T02:51:40;97259.81;;;7.43;100.00
72038;BME280;59900;50.788;12.904;2023-02-19T02:54:11;97277.28;;;7.42;100.00
72038;BME280;59900;50.788;12.904;2023-02-19T02:56:57;97272.88;;;7.43;100.00
72038;BME280;59900;50.788;12.904;2023-02-19T02:59:25;97270.69;;;7.46;100.00
72038;BME280;59900;50.788;12.904;2023-02-19T03:01:55;97279.94;;;7.49;100.00
72038;BME280;59900;50.788;12.904;2023-02-19T03:04:53;97266.88;;;7.49;100.00
72038;BME280;59900;50.788;12.904;2023-02-19T03:07:57;97263.28;;;7.50;100.00
72038;BME280;59900;50.788;12.904;2023-02-19T03:12:59;97255.44;;;7.50;100.00
72038;BME280;59900;50.788;12.904;2023-02-19T03:15:50;97259.03;;;7.49;100.00
72038;BME280;59900;50.788;12.904;2023-02-19T03:18:36;97244.97;;;7.50;100.00
72038;BME280;59900;50.788;12.904;2023-02-19T03:21:22;97248.22;;;7.52;100.00
72038;BME280;59900;50.788;12.904;2023-02-19T03:23:48;97240.38;;;7.52;100.00
72038;BME280;59900;50.788;12.904;2023-02-19T03:26:34;97249.69;;;7.54;99.70
72038;BME280;59900;50.788;12.904;2023-02-19T03:29:02;97248.88;;;7.54;99.88
72038;BME280;59900;50.788;12.904;2023-02-19T03:31:54;97229.38;;;7.56;99.33
72038;BME280;59900;50.788;12.904;2023-02-19T03:34:25;97240.81;;;7.55;98.62
72038;BME280;59900;50.788;12.904;2023-02-19T03:37:09;97227.22;;;7.60;98.86
72038;BME280;59900;50.788;12.904;2023-02-19T03:39:36;97232.25;;;7.61;98.00
72038;BME280;59900;50.788;12.904;2023-02-19T03:42:28;97236.50;;;7.62;98.04
72038;BME280;59900;50.788;12.904;2023-02-19T03:45:26;97220.59;;;7.64;97.39
72038;BME280;59900;50.788;12.904;2023-02-19T03:48:19;97221.84;;;7.68;97.66
72038;BME280;59900;50.788;12.904;2023-02-19T03:50:51;97210.22;;;7.70;96.75
72038;BME280;59900;50.788;12.904;2023-02-19T03:53:32;97223.91;;;7.72;96.60
72038;BME280;59900;50.788;12.904;2023-02-19T03:56:18;97218.66;;;7.72;96.22
72038;BME280;59900;50.788;12.904;2023-02-19T03:59:00;97220.75;;;7.77;95.36
72038;BME280;59900;50.788;12.904;2023-02-19T04:04:11;97209.19;;;7.86;94.89
72038;BME280;59900;50.788;12.904;2023-02-19T04:06:41;97208.16;;;7.87;94.53
72038;BME280;59900;50.788;12.904;2023-02-19T04:09:10;97213.22;;;7.88;94.47
72038;BME280;59900;50.788;12.904;2023-02-19T04:11:37;97201.56;;;7.91;94.49
72038;BME280;59900;50.788;12.904;2023-02-19T04:14:10;97213.66;;;7.92;93.69
72038;BME280;59900;50.788;12.904;2023-02-19T04:16:41;97202.00;;;7.95;93.84
72038;BME280;59900;50.788;12.904;2023-02-19T04:19:11;97217.72;;;7.95;93.68
72038;BME280;59900;50.788;12.904;2023-02-19T04:21:39;97212.47;;;7.95;94.58
72038;BME280;59900;50.788;12.904;2023-02-19T04:24:10;97202.38;;;7.92;95.94
72038;BME280;59900;50.788;12.904;2023-02-19T04:26:36;97222.88;;;7.88;96.57
72038;BME280;59900;50.788;12.904;2023-02-19T04:29:01;97196.47;;;7.83;96.78
72038;BME280;59900;50.788;12.904;2023-02-19T04:31:28;97194.22;;;7.80;96.49
72038;BME280;59900;50.788;12.904;2023-02-19T04:33:55;97200.28;;;7.80;97.02
72038;BME280;59900;50.788;12.904;2023-02-19T04:36:20;97202.06;;;7.80;96.67
72038;BME280;59900;50.788;12.904;2023-02-19T04:38:45;97202.50;;;7.83;96.07
72038;BME280;59900;50.788;12.904;2023-02-19T04:41:11;97195.44;;;7.84;95.83
72038;BME280;59900;50.788;12.904;2023-02-19T04:43:36;97195.44;;;7.84;96.51
72038;BME280;59900;50.788;12.904;2023-02-19T04:46:01;97199.91;;;7.83;96.96
72038;BME280;59900;50.788;12.904;2023-02-19T04:48:27;97212.34;;;7.81;96.63
72038;BME280;59900;50.788;12.904;2023-02-19T04:50:52;97204.31;;;7.83;96.36
72038;BME280;59900;50.788;12.904;2023-02-19T04:53:18;97199.69;;;7.85;97.10
72038;BME280;59900;50.788;12.904;2023-02-19T04:55:43;97219.38;;;7.81;97.55
72038;BME280;59900;50.788;12.904;2023-02-19T04:58:08;97207.47;;;7.78;98.16
72038;BME280;59900;50.788;12.904;2023-02-19T05:00:33;97205.06;;;7.77;97.80
72038;BME280;59900;50.788;12.904;2023-02-19T05:02:59;97200.63;;;7.77;97.80
72038;BME280;59900;50.788;12.904;2023-02-19T05:05:25;97193.78;;;7.76;97.31
72038;BME280;59900;50.788;12.904;2023-02-19T05:07:51;97211.09;;;7.77;97.06
72038;BME280;59900;50.788;12.904;2023-02-19T05:10:16;97198.63;;;7.79;96.78
72038;BME280;59900;50.788;12.904;2023-02-19T05:12:41;97208.91;;;7.81;96.91
72038;BME280;59900;50.788;12.904;2023-02-19T05:15:06;97210.34;;;7.83;96.56
72038;BME280;59900;50.788;12.904;2023-02-19T05:17:32;97205.91;;;7.84;95.79
72038;BME280;59900;50.788;12.904;2023-02-19T05:19:58;97199.31;;;7.88;95.35
72038;BME280;59900;50.788;12.904;2023-02-19T05:22:23;97195.72;;;7.89;95.08
72038;BME280;59900;50.788;12.904;2023-02-19T05:24:49;97196.13;;;7.93;95.08
72038;BME280;59900;50.788;12.904;2023-02-19T05:27:14;97207.25;;;7.95;94.98
72038;BME280;59900;50.788;12.904;2023-02-19T05:29:39;97208.84;;;7.96;95.58
72038;BME280;59900;50.788;12.904;2023-02-19T05:32:04;97212.47;;;7.95;95.05
72038;BME280;59900;50.788;12.904;2023-02-19T05:34:30;97213.00;;;7.90;97.15
72038;BME280;59900;50.788;12.904;2023-02-19T05:36:55;97220.63;;;7.85;97.60
72038;BME280;59900;50.788;12.904;2023-02-19T05:39:20;97213.72;;;7.77;99.30
72038;BME280;59900;50.788;12.904;2023-02-19T05:41:45;97211.19;;;7.69;99.97
72038;BME280;59900;50.788;12.904;2023-02-19T05:44:11;97214.56;;;7.63;100.00
72038;BME280;59900;50.788;12.904;2023-02-19T05:46:36;97207.88;;;7.61;100.00
72038;BME280;59900;50.788;12.904;2023-02-19T05:49:01;97203.03;;;7.58;100.00
72038;BME280;59900;50.788;12.904;2023-02-19T05:51:27;97243.69;;;7.60;99.91
72038;BME280;59900;50.788;12.904;2023-02-19T05:53:54;97234.03;;;7.61;99.82
72038;BME280;59900;50.788;12.904;2023-02-19T05:58:51;97251.94;;;7.57;100.00
72038;BME280;59900;50.788;12.904;2023-02-19T06:01:19;97261.56;;;7.57;100.00
72038;BME280;59900;50.788;12.904;2023-02-19T06:03:44;97251.13;;;7.57;100.00
72038;BME280;59900;50.788;12.904;2023-02-19T06:06:14;97265.78;;;7.58;100.00
72038;BME280;59900;50.788;12.904;2023-02-19T06:08:40;97274.44;;;7.58;100.00
72038;BME280;59900;50.788;12.904;2023-02-19T06:11:05;97278.69;;;7.59;100.00
72038;BME280;59900;50.788;12.904;2023-02-19T06:13:30;97276.25;;;7.58;100.00
72038;BME280;59900;50.788;12.904;2023-02-19T06:15:56;97273.25;;;7.61;100.00
72038;BME280;59900;50.788;12.904;2023-02-19T06:18:21;97295.38;;;7.58;100.00
72038;BME280;59900;50.788;12.904;2023-02-19T06:20:46;97302.41;;;7.58;100.00
72038;BME280;59900;50.788;12.904;2023-02-19T06:23:12;97320.00;;;7.49;100.00
72038;BME280;59900;50.788;12.904;2023-02-19T06:25:37;97326.59;;;7.45;100.00
72038;BME280;59900;50.788;12.904;2023-02-19T06:28:02;97327.13;;;7.41;100.00
72038;BME280;59900;50.788;12.904;2023-02-19T06:30:28;97318.19;;;7.35;100.00
72038;BME280;59900;50.788;12.904;2023-02-19T06:32:53;97400.91;;;7.28;100.00
72038;BME280;59900;50.788;12.904;2023-02-19T06:35:20;97347.84;;;7.13;100.00
72038;BME280;59900;50.788;12.904;2023-02-19T06:37:46;97360.97;;;7.05;100.00
72038;BME280;59900;50.788;12.904;2023-02-19T06:40:11;97364.94;;;7.01;100.00
72038;BME280;59900;50.788;12.904;2023-02-19T06:42:37;97354.19;;;6.96;100.00
72038;BME280;59900;50.788;12.904;2023-02-19T06:45:02;97328.34;;;6.86;100.00
72038;BME280;59900;50.788;12.904;2023-02-19T06:47:31;97327.25;;;6.81;100.00
72038;BME280;59900;50.788;12.904;2023-02-19T06:49:57;97322.03;;;6.81;100.00
72038;BME280;59900;50.788;12.904;2023-02-19T06:52:22;97343.91;;;6.80;100.00
72038;BME280;59900;50.788;12.904;2023-02-19T06:54:48;97342.94;;;6.81;100.00
72038;BME280;59900;50.788;12.904;2023-02-19T06:57:13;97332.47;;;6.81;100.00
72038;BME280;59900;50.788;12.904;2023-02-19T06:59:38;97341.94;;;6.82;100.00
72038;BME280;59900;50.788;12.904;2023-02-19T07:02:03;97354.16;;;6.81;100.00
72038;BME280;59900;50.788;12.904;2023-02-19T07:04:29;97349.75;;;6.82;100.00
72038;BME280;59900;50.788;12.904;2023-02-19T07:06:54;97364.81;;;6.80;100.00
72038;BME280;59900;50.788;12.904;2023-02-19T07:09:19;97363.34;;;6.77;100.00
72038;BME280;59900;50.788;12.904;2023-02-19T07:11:44;97344.25;;;6.76;100.00
72038;BME280;59900;50.788;12.904;2023-02-19T07:14:13;97356.84;;;6.73;100.00
72038;BME280;59900;50.788;12.904;2023-02-19T07:16:39;97357.03;;;6.71;100.00
72038;BME280;59900;50.788;12.904;2023-02-19T07:19:04;97356.38;;;6.69;100.00
72038;BME280;59900;50.788;12.904;2023-02-19T07:21:30;97359.81;;;6.70;100.00
72038;BME280;59900;50.788;12.904;2023-02-19T07:23:56;97368.66;;;6.69;100.00
72038;BME280;59900;50.788;12.904;2023-02-19T07:26:21;97369.09;;;6.72;100.00
72038;BME280;59900;50.788;12.904;2023-02-19T07:28:48;97370.09;;;6.71;100.00
72038;BME280;59900;50.788;12.904;2023-02-19T07:31:15;97392.25;;;6.75;100.00
72038;BME280;59900;50.788;12.904;2023-02-19T07:33:44;97375.59;;;6.76;100.00
72038;BME280;59900;50.788;12.904;2023-02-19T07:36:10;97384.72;;;6.81;100.00
72038;BME280;59900;50.788;12.904;2023-02-19T07:38:35;97382.72;;;6.83;100.00
72038;BME280;59900;50.788;12.904;2023-02-19T07:41:03;97381.91;;;6.82;100.00
72038;BME280;59900;50.788;12.904;2023-02-19T07:43:30;97390.38;;;6.84;100.00
72038;BME280;59900;50.788;12.904;2023-02-19T07:45:56;97398.06;;;6.86;100.00
72038;BME280;59900;50.788;12.904;2023-02-19T07:48:22;97396.41;;;6.85;100.00
72038;BME280;59900;50.788;12.904;2023-02-19T07:50:53;97398.88;;;6.86;100.00
72038;BME280;59900;50.788;12.904;2023-02-19T07:53:19;97405.25;;;6.84;100.00
72038;BME280;59900;50.788;12.904;2023-02-19T07:55:45;97399.03;;;6.85;100.00
72038;BME280;59900;50.788;12.904;2023-02-19T07:58:10;97400.66;;;6.86;100.00
72038;BME280;59900;50.788;12.904;2023-02-19T08:00:35;97409.81;;;6.82;100.00
72038;BME280;59900;50.788;12.904;2023-02-19T08:03:00;97416.84;;;6.81;100.00
72038;BME280;59900;50.788;12.904;2023-02-19T08:05:31;97411.00;;;6.79;100.00
72038;BME280;59900;50.788;12.904;2023-02-19T08:07:58;97402.34;;;6.78;100.00
72038;BME280;59900;50.788;12.904;2023-02-19T08:10:24;97411.53;;;6.74;100.00
72038;BME280;59900;50.788;12.904;2023-02-19T08:13:14;97411.88;;;6.71;100.00
72038;BME280;59900;50.788;12.904;2023-02-19T08:15:56;97424.94;;;6.71;100.00
72038;BME280;59900;50.788;12.904;2023-02-19T08:18:33;97419.59;;;6.65;100.00
72038;BME280;59900;50.788;12.904;2023-02-19T08:20:59;97422.19;;;6.65;100.00
72038;BME280;59900;50.788;12.904;2023-02-19T08:23:25;97433.63;;;6.64;100.00
72038;BME280;59900;50.788;12.904;2023-02-19T08:25:51;97426.13;;;6.61;100.00
72038;BME280;59900;50.788;12.904;2023-02-19T08:28:18;97426.31;;;6.59;100.00
72038;BME280;59900;50.788;12.904;2023-02-19T08:30:45;97428.13;;;6.59;100.00
72038;BME280;59900;50.788;12.904;2023-02-19T08:33:12;97435.41;;;6.63;100.00
72038;BME280;59900;50.788;12.904;2023-02-19T08:35:37;97441.31;;;6.65;100.00
72038;BME280;59900;50.788;12.904;2023-02-19T08:38:04;97442.56;;;6.69;100.00
72038;BME280;59900;50.788;12.904;2023-02-19T08:40:30;97451.06;;;6.71;100.00
72038;BME280;59900;50.788;12.904;2023-02-19T08:43:04;97449.88;;;6.74;100.00
72038;BME280;59900;50.788;12.904;2023-02-19T08:45:30;97465.56;;;6.74;100.00
72038;BME280;59900;50.788;12.904;2023-02-19T08:47:56;97478.13;;;6.70;100.00
72038;BME280;59900;50.788;12.904;2023-02-19T08:50:22;97467.53;;;6.72;100.00
72038;BME280;59900;50.788;12.904;2023-02-19T08:52:47;97484.00;;;6.72;100.00
72038;BME280;59900;50.788;12.904;2023-02-19T08:55:12;97484.34;;;6.69;100.00
72038;BME280;59900;50.788;12.904;2023-02-19T08:57:38;97528.72;;;6.69;100.00
72038;BME280;59900;50.788;12.904;2023-02-19T09:00:04;97520.75;;;6.71;100.00
72038;BME280;59900;50.788;12.904;2023-02-19T09:02:30;97577.56;;;6.61;100.00
72038;BME280;59900;50.788;12.904;2023-02-19T09:04:55;97544.53;;;6.37;100.00
72038;BME280;59900;50.788;12.904;2023-02-19T09:07:21;97573.53;;;6.03;100.00
72038;BME280;59900;50.788;12.904;2023-02-19T09:09:47;97587.06;;;5.83;100.00
72038;BME280;59900;50.788;12.904;2023-02-19T09:12:12;97577.44;;;5.67;100.00
72038;BME280;59900;50.788;12.904;2023-02-19T09:14:37;97587.38;;;5.55;100.00
72038;BME280;59900;50.788;12.904;2023-02-19T09:17:04;97583.16;;;5.46;100.00
72038;BME280;59900;50.788;12.904;2023-02-19T09:19:30;97604.19;;;5.37;100.00
72038;BME280;59900;50.788;12.904;2023-02-19T09:21:55;97613.09;;;5.34;100.00
72038;BME280;59900;50.788;12.904;2023-02-19T09:24:21;97614.41;;;5.22;100.00
72038;BME280;59900;50.788;12.904;2023-02-19T09:26:53;97613.28;;;5.25;100.00
72038;BME280;59900;50.788;12.904;2023-02-19T09:29:28;97621.72;;;5.19;100.00
72038;BME280;59900;50.788;12.904;2023-02-19T09:31:58;97630.19;;;5.21;100.00
72038;BME280;59900;50.788;12.904;2023-02-19T09:34:25;97633.94;;;5.18;100.00
72038;BME280;59900;50.788;12.904;2023-02-19T09:36:50;97642.38;;;5.12;100.00
72038;BME280;59900;50.788;12.904;2023-02-19T09:39:16;97645.44;;;4.99;100.00
72038;BME280;59900;50.788;12.904;2023-02-19T09:41:56;97648.34;;;4.96;100.00
72038;BME280;59900;50.788;12.904;2023-02-19T09:44:26;97654.56;;;4.95;100.00
72038;BME280;59900;50.788;12.904;2023-02-19T09:46:53;97658.75;;;4.88;100.00
72038;BME280;59900;50.788;12.904;2023-02-19T09:52:05;97662.16;;;4.81;100.00
72038;BME280;59900;50.788;12.904;2023-02-19T09:54:33;97677.72;;;4.73;100.00
72038;BME280;59900;50.788;12.904;2023-02-19T09:57:01;97689.25;;;4.70;100.00
72038;BME280;59900;50.788;12.904;2023-02-19T09:59:39;97676.72;;;4.66;100.00
72038;BME280;59900;50.788;12.904;2023-02-19T10:02:20;97700.47;;;4.63;100.00
72038;BME280;59900;50.788;12.904;2023-02-19T10:04:46;97702.72;;;4.58;100.00
72038;BME280;59900;50.788;12.904;2023-02-19T10:07:13;97717.16;;;4.52;100.00
72038;BME280;59900;50.788;12.904;2023-02-19T10:09:39;97729.34;;;4.51;100.00
72038;BME280;59900;50.788;12.904;2023-02-19T10:12:13;97717.91;;;4.44;100.00
72038;BME280;59900;50.788;12.904;2023-02-19T10:14:43;97742.09;;;4.37;100.00
72038;BME280;59900;50.788;12.904;2023-02-19T10:17:20;97746.56;;;4.27;100.00
72038;BME280;59900;50.788;12.904;2023-02-19T10:19:46;97753.50;;;4.18;100.00
72038;BME280;59900;50.788;12.904;2023-02-19T10:22:11;97761.22;;;4.10;100.00
72038;BME280;59900;50.788;12.904;2023-02-19T10:24:40;97752.44;;;4.11;100.00
72038;BME280;59900;50.788;12.904;2023-02-19T10:27:13;97764.19;;;4.15;100.00
72038;BME280;59900;50.788;12.904;2023-02-19T10:29:42;97772.53;;;4.19;100.00
72038;BME280;59900;50.788;12.904;2023-02-19T10:32:19;97772.66;;;4.17;100.00
72038;BME280;59900;50.788;12.904;2023-02-19T10:34:50;97782.34;;;4.07;100.00
72038;BME280;59900;50.788;12.904;2023-02-19T10:37:30;97787.84;;;4.04;100.00
72038;BME280;59900;50.788;12.904;2023-02-19T10:39:56;97795.28;;;3.99;100.00
72038;BME280;59900;50.788;12.904;2023-02-19T10:42:22;97797.13;;;3.89;100.00
72038;BME280;59900;50.788;12.904;2023-02-19T10:44:54;97804.38;;;3.85;100.00
72038;BME280;59900;50.788;12.904;2023-02-19T10:47:24;97788.66;;;3.87;100.00
72038;BME280;59900;50.788;12.904;2023-02-19T10:49:51;97809.56;;;3.85;100.00
72038;BME280;59900;50.788;12.904;2023-02-19T10:52:23;97823.41;;;3.86;100.00
72038;BME280;59900;50.788;12.904;2023-02-19T10:54:52;97832.06;;;3.77;99.51
72038;BME280;59900;50.788;12.904;2023-02-19T11:00:40;97838.13;;;3.68;100.00
72038;BME280;59900;50.788;12.904;2023-02-19T11:02:43;97843.38;;;3.58;100.00
72038;BME280;59900;50.788;12.904;2023-02-19T11:07:37;97850.22;;;3.59;100.00
72038;BME280;59900;50.788;12.904;2023-02-19T11:10:04;97852.69;;;3.61;100.00
72038;BME280;59900;50.788;12.904;2023-02-19T11:12:32;97858.56;;;3.63;100.00
72038;BME280;59900;50.788;12.904;2023-02-19T11:15:22;97857.31;;;3.67;100.00
72038;BME280;59900;50.788;12.904;2023-02-19T11:20:49;97874.63;;;3.76;98.65
72038;BME280;59900;50.788;12.904;2023-02-19T11:23:22;97873.94;;;3.74;99.40
72038;BME280;59900;50.788;12.904;2023-02-19T11:25:49;97886.00;;;3.75;98.28
72038;BME280;59900;50.788;12.904;2023-02-19T11:28:35;97878.56;;;3.80;99.08
72038;BME280;59900;50.788;12.904;2023-02-19T11:31:24;97879.53;;;3.79;98.49
72038;BME280;59900;50.788;12.904;2023-02-19T11:33:55;97878.94;;;3.85;96.96
72038;BME280;59900;50.788;12.904;2023-02-19T11:36:32;97890.03;;;3.87;96.20
72038;BME280;59900;50.788;12.904;2023-02-19T11:39:01;97879.19;;;3.91;96.24
72038;BME280;59900;50.788;12.904;2023-02-19T11:42:06;97881.75;;;4.01;95.83
72038;BME280;59900;50.788;12.904;2023-02-19T11:44:49;97882.94;;;4.07;96.68
72038;BME280;59900;50.788;12.904;2023-02-19T11:47:38;97891.63;;;4.15;96.71
72038;BME280;59900;50.788;12.904;2023-02-19T11:52:41;97902.31;;;4.12;94.90
72038;BME280;59900;50.788;12.904;2023-02-19T11:55:12;97906.56;;;4.13;95.42
72038;BME280;59900;50.788;12.904;2023-02-19T11:57:47;97907.81;;;4.09;95.08
72038;BME280;59900;50.788;12.904;2023-02-19T12:00:25;97914.88;;;3.99;95.85
72038;BME280;59900;50.788;12.904;2023-02-19T12:05:48;97918.06;;;3.93;96.14
72038;BME280;59900;50.788;12.904;2023-02-19T12:08:55;97916.50;;;4.00;95.56
72038;BME280;59900;50.788;12.904;2023-02-19T12:11:39;97911.53;;;4.07;95.07
72038;BME280;59900;50.788;12.904;2023-02-19T12:14:13;97912.88;;;4.11;95.81
72038;BME280;59900;50.788;12.904;2023-02-19T12:17:14;97913.78;;;4.19;95.06
72038;BME280;59900;50.788;12.904;2023-02-19T12:20:01;97924.19;;;4.19;93.42
72038;BME280;59900;50.788;12.904;2023-02-19T12:22:32;97945.72;;;4.12;89.06
72038;BME280;59900;50.788;12.904;2023-02-19T12:25:17;97933.44;;;4.04;88.46
72038;BME280;59900;50.788;12.904;2023-02-19T12:28:11;97927.44;;;4.04;89.28
72038;BME280;59900;50.788;12.904;2023-02-19T12:31:02;97936.88;;;4.05;89.13
72038;BME280;59900;50.788;12.904;2023-02-19T12:33:59;97934.00;;;4.08;89.31
72038;BME280;59900;50.788;12.904;2023-02-19T12:39:40;97943.28;;;4.10;90.51
72038;BME280;59900;50.788;12.904;2023-02-19T12:42:39;97963.63;;;4.15;90.06
72038;BME280;59900;50.788;12.904;2023-02-19T12:45:17;97954.50;;;4.11;90.14
72038;BME280;59900;50.788;12.904;2023-02-19T12:47:50;97961.84;;;4.15;92.12
72038;BME280;59900;50.788;12.904;2023-02-19T12:50:22;97958.31;;;4.16;93.65
72038;BME280;59900;50.788;12.904;2023-02-19T12:53:02;97958.13;;;4.18;91.40
72038;BME280;59900;50.788;12.904;2023-02-19T12:55:34;97953.19;;;4.24;91.52
72038;BME280;59900;50.788;12.904;2023-02-19T12:58:02;97958.63;;;4.31;91.27
72038;BME280;59900;50.788;12.904;2023-02-19T13:00:42;97955.34;;;4.29;90.29
72038;BME280;59900;50.788;12.904;2023-02-19T13:03:16;97961.75;;;4.34;90.05
72038;BME280;59900;50.788;12.904;2023-02-19T13:06:21;97965.16;;;4.35;89.96
72038;BME280;59900;50.788;12.904;2023-02-19T13:11:27;97976.88;;;4.21;87.39
72038;BME280;59900;50.788;12.904;2023-02-19T13:16:41;97969.69;;;4.33;88.36
72038;BME280;59900;50.788;12.904;2023-02-19T13:19:08;97967.75;;;4.35;90.26
72038;BME280;59900;50.788;12.904;2023-02-19T13:21:36;97976.09;;;4.38;88.94
72038;BME280;59900;50.788;12.904;2023-02-19T13:24:24;97968.94;;;4.40;89.86
72038;BME280;59900;50.788;12.904;2023-02-19T13:27:23;97967.16;;;4.41;88.58
72038;BME280;59900;50.788;12.904;2023-02-19T13:30:05;97969.34;;;4.45;89.18
72038;BME280;59900;50.788;12.904;2023-02-19T13:38:00;97985.97;;;4.35;89.07
72038;BME280;59900;50.788;12.904;2023-02-19T13:40:34;97984.06;;;4.37;89.63
72038;BME280;59900;50.788;12.904;2023-02-19T13:43:02;97990.22;;;4.36;88.05
72038;BME280;59900;50.788;12.904;2023-02-19T13:45:40;97983.81;;;4.30;86.46
72038;BME280;59900;50.788;12.904;2023-02-19T13:48:25;97983.53;;;4.33;87.31
72038;BME280;59900;50.788;12.904;2023-02-19T14:09:47;98007.34;;;4.29;85.49
72038;BME280;59900;50.788;12.904;2023-02-19T14:30:32;98036.47;;;4.42;86.01
72038;BME280;59900;50.788;12.904;2023-02-19T14:32:59;98024.56;;;4.39;86.09
72038;BME280;59900;50.788;12.904;2023-02-19T14:35:33;98018.91;;;4.44;85.49
72038;BME280;59900;50.788;12.904;2023-02-19T14:38:00;98021.97;;;4.39;84.39
72038;BME280;59900;50.788;12.904;2023-02-19T14:40:38;98026.31;;;4.48;85.15